»·PEaware :: SWA1635 KLAS-KSAN

SWA1635 :: KLAS-KSAN

FLIGHT INFORMATION

Flight Status: Arrived
Operator:
Southwest Airlines
More flights by this operator :: More flights under this callsign
Pilot: Daniel R. (17770)
Aircraft: BOEING 737-200
(B732)
More flights by this aircraft type
Origin: KLAS McCarran Intl
United States
Destination: KSAN San Diego Intl-Lindbergh
United States
More flights between these airports :: More routes between these airports
Route: +MCCRN5 TNP BARET5
File this flight plan on PilotEdge
Remarks:
Altitude:
(Current/Filed)
28,000ft
Speed:
(Current/Filed)
444kts
Departed: 26-Sep-18 06:17 PM
Arrived: 26-Sep-18 07:07 PM
Distance/Time
Traveled:
225nm/0:50
Distance/Time
To Go:
Arrived

Flight Plot

Page will automatically refresh every two minutes.

Flight plan parsing failed; only flown route is shown


Map Options




Map Legend


Flown Route
Filed Route
Departure Airport
Arrival Airport
Navaid (VOR, NDB)
Fix

Horizontal Profiles

Position Reports

Time Latitude Longitude Heading Altitude Ground
Speed
26-Sep-18 17:50 36.082126 -115.152900 357 2115ft 0kts
26-Sep-18 17:51 36.082126 -115.152900 357 2115ft 0kts
26-Sep-18 17:52 36.082126 -115.152900 357 2115ft 0kts
26-Sep-18 17:53 36.082126 -115.152900 357 2115ft 0kts
26-Sep-18 17:54 36.082126 -115.152900 357 2115ft 0kts
26-Sep-18 17:55 36.082126 -115.152900 357 2115ft 0kts
26-Sep-18 17:56 36.082126 -115.152900 357 2115ft 0kts
26-Sep-18 17:57 36.082126 -115.152900 357 2115ft 0kts
26-Sep-18 17:58 36.082126 -115.152900 357 2115ft 0kts
26-Sep-18 17:59 36.082126 -115.152900 357 2115ft 0kts
26-Sep-18 18:00 36.082126 -115.152900 357 2115ft 0kts
26-Sep-18 18:01 36.082126 -115.152900 357 2115ft 0kts
26-Sep-18 18:02 36.082126 -115.152900 357 2115ft 0kts
26-Sep-18 18:03 36.082126 -115.152900 357 2115ft 0kts
26-Sep-18 18:04 36.082126 -115.152900 357 2115ft 0kts
26-Sep-18 18:05 36.082126 -115.152900 357 2115ft 0kts
26-Sep-18 18:06 36.082126 -115.152900 357 2115ft 0kts
26-Sep-18 18:07 36.082153 -115.152986 228 2115ft 1kts
26-Sep-18 18:08 36.082089 -115.152978 171 2115ft 0kts
26-Sep-18 18:09 36.082089 -115.152978 171 2115ft 0kts
26-Sep-18 18:10 36.082089 -115.152978 171 2115ft 0kts
26-Sep-18 18:11 36.082089 -115.152978 171 2115ft 0kts
26-Sep-18 18:12 36.081652 -115.153504 239 2119ft 12kts
26-Sep-18 18:13 36.077994 -115.150648 94 2115ft 26kts
26-Sep-18 18:14 36.077530 -115.140533 89 2083ft 32kts
26-Sep-18 18:15 36.077542 -115.128252 89 2047ft 38kts
26-Sep-18 18:16 36.077389 -115.121425 139 2038ft 0kts
26-Sep-18 18:17 36.077389 -115.121425 139 2038ft 0kts
26-Sep-18 18:18 36.077296 -115.121362 157 2038ft 6kts
26-Sep-18 18:19 36.076423 -115.128655 269 2051ft 99kts
26-Sep-18 18:20 36.074778 -115.185615 261 2845ft 211kts
26-Sep-18 18:21 36.050495 -115.254052 205 5199ft 244kts
26-Sep-18 18:22 35.982005 -115.276609 192 7363ft 278kts
26-Sep-18 18:23 35.903136 -115.297989 192 9774ft 297kts
26-Sep-18 18:24 35.824018 -115.319333 192 12035ft 307kts
26-Sep-18 18:25 35.739382 -115.342037 192 13940ft 317kts
26-Sep-18 18:26 35.652133 -115.365229 192 15689ft 326kts
26-Sep-18 18:27 35.562065 -115.382342 166 17234ft 335kts
26-Sep-18 18:28 35.476320 -115.335951 160 18668ft 342kts
26-Sep-18 18:29 35.383382 -115.294515 159 19132ft 377kts
26-Sep-18 18:30 35.281211 -115.246722 158 19692ft 403kts
26-Sep-18 18:31 35.175469 -115.198607 159 20837ft 410kts
26-Sep-18 18:32 35.065086 -115.170911 196 21630ft 420kts
26-Sep-18 18:33 34.964218 -115.240442 207 22605ft 422kts
26-Sep-18 18:34 34.863302 -115.293171 202 24411ft 400kts
26-Sep-18 18:35 34.760729 -115.339911 201 25579ft 399kts
26-Sep-18 18:36 34.657212 -115.385582 201 26610ft 400kts
26-Sep-18 18:37 34.552212 -115.431721 201 27585ft 404kts
26-Sep-18 18:38 34.445940 -115.478211 201 28088ft 414kts
26-Sep-18 18:39 34.335240 -115.526379 201 28087ft 431kts
26-Sep-18 18:40 34.240699 -115.608736 235 28099ft 432kts
26-Sep-18 18:41 34.162996 -115.712774 229 28154ft 443kts
26-Sep-18 18:42 34.077765 -115.820629 229 27812ft 444kts
26-Sep-18 18:43 33.962409 -115.864894 172 25902ft 456kts
26-Sep-18 18:44 33.842972 -115.855334 190 23923ft 447kts
26-Sep-18 18:45 33.725568 -115.886485 193 23864ft 428kts
26-Sep-18 18:46 33.610450 -115.920182 194 23860ft 424kts
26-Sep-18 18:47 33.498251 -115.959764 214 23857ft 419kts
26-Sep-18 18:48 33.434766 -116.071381 241 23864ft 410kts
26-Sep-18 18:49 33.367400 -116.178629 219 23862ft 388kts
26-Sep-18 18:50 33.291635 -116.260340 227 21091ft 363kts
26-Sep-18 18:51 33.220301 -116.342223 222 18797ft 349kts
26-Sep-18 18:52 33.149680 -116.417833 221 17227ft 336kts
26-Sep-18 18:53 33.080533 -116.490363 221 15648ft 326kts
26-Sep-18 18:54 33.010258 -116.553877 194 14082ft 313kts
26-Sep-18 18:55 32.927344 -116.578323 192 12593ft 303kts
26-Sep-18 18:56 32.849795 -116.600525 192 11414ft 287kts
26-Sep-18 18:57 32.772642 -116.622455 192 9951ft 283kts
26-Sep-18 18:58 32.696691 -116.643898 199 8511ft 280kts
26-Sep-18 18:59 32.664458 -116.717834 262 7611ft 254kts
26-Sep-18 19:00 32.654120 -116.793572 262 6506ft 223kts
26-Sep-18 19:01 32.653969 -116.861305 286 5140ft 192kts
26-Sep-18 19:02 32.668358 -116.922053 287 4961ft 182kts
26-Sep-18 19:03 32.682212 -116.978997 287 4109ft 153kts
26-Sep-18 19:04 32.693219 -117.023925 286 2791ft 135kts
26-Sep-18 19:05 32.702484 -117.061820 286 2015ft 129kts
26-Sep-18 19:06 32.712638 -117.103467 285 660ft 125kts
26-Sep-18 19:07 32.722308 -117.143281 286 686ft 126kts
26-Sep-18 19:08 32.732039 -117.183514 285 30ft 125kts
26-Sep-18 19:09 32.735486 -117.202199 186 19ft 7kts
26-Sep-18 19:10 32.735449 -117.202203 186 19ft 0kts
26-Sep-18 19:11 32.735449 -117.202203 186 19ft 0kts
26-Sep-18 19:12 32.733768 -117.203418 269 19ft 2kts
26-Sep-18 19:13 32.733767 -117.203480 268 19ft 0kts
26-Sep-18 19:14 32.733767 -117.203480 268 19ft 0kts
26-Sep-18 19:15 32.733767 -117.203480 268 19ft 0kts
26-Sep-18 19:16 32.733767 -117.203480 268 19ft 0kts

Navigation Log

Ident Type
Flight plan parsing failed, navigation log unavailable